Airfield :
LOGIN :

Register | Disclaimer

   EN    FR    IT 

 










Legend :    VFR   Marginal VFR   IFR   Intensive IFR   Very Intensive IFR
Visi :
Ceiling :
>= 8 km
>= 3000ft
5 to 8 km
1000 to 3000 ft
1500m to 5 km
500 to 1000 ft
800 to 1500m
200 to 500 ft
< 800m
< 200 ft
Symbols :   Thunderstorms  Fog  Heavy snow  Heavy precipitations  Wind > 20 kt
SIGMETs :     Misc.  Thunderstorms  Icing  Turbulence  Mountain Waves  Volcanic Ashes







- Airport Elevation : 19 ft
- IATA code : BEB
- Download approach charts


EGPL - Benbecula

CURRENT METAR :
  • 221120Z 15021KT CAVOK 16/07 Q1003

EXPIRED METARs :
  • 221050Z 15023KT CAVOK 15/07 Q1003
  • 221020Z 15025KT CAVOK 14/07 Q1002
  • 220950Z 15024KT CAVOK 14/07 Q1002
  • 220920Z 16022KT CAVOK 14/07 Q1002

TAF TAF EGPL
Valid from the 22 at 12:00 until the 22 at 17:00 UTC


221059Z 2212/2217 16018KT CAVOK
TEMPO 2212/2216 16025G35KT
ATIS : +44 1870 604 818
No reported NOTAMs for that airfield.
1 SIGMET reported for the Scottish FIR (EGPX) :
 
Severe mountain waves
EGPX SIGMET 01 VALID 221125/221525 EGRR
EGPX SCOTTISH FIR SEV MTW OBS WI N5634 W00114 - N5617 W00808 - N5823 W00736 - N6100 W00644 - N6100 W00028 - N5634 W00114 FL040/100 STNR NC=



MET'MAP, your aeronautical weather chart ! - Copyright ORBIFLY December 2007 - Disclaimer

ORBIFLY MET'MAP TEAM :

Programming & Development : Alexandra Zaïnal
Concept & Development : Baudouin d'Aumeries
Co-Development & Prog : Marc-Olivier Méhu
Technical & hardware support : Manuel Goepfert

Contact : metmap@orbifly.com




SOURCES & CREDITS :

   NOAA